Eureka, Illinois
Current Conditions -  °F | °C
As of 6:55 PM on Wednesday 22 Oct 2014 (Local Time) from KC75 Reporting Station
Clear Clear  
Wind Chill: 51°   Ceiling: Unl
Heat Index: 51°   Visibility: 10mi
Dew Point: 34°   Wind: 3mph
Humidity: 52%   Direction: 120°ESE
Pressure: 30.22"   Gusts: NA
Location:  40.72°N, 89.27°W
Report Text: KC75 222355Z AUTO 12003KT 10SM CLR 11/01 A3022 RMK AO2 T01070012 10155 20107
Loading
Personal Weather Stations






























Interactive Weather Map
Tropical Storm Tracking
New forecast layout! Learn more

10-Day Weather Forecast

Advertisements
Track Severe Weather on mobile